Time;durP1;ratioP1;P1;durP2;ratioP2;P2;SDS_P1;SDS_P2;PMS_P1;PMS_P2;Temp;Humidity;BMP_temperature;BMP_pressure;BME280_temperature;BME280_humidity;BME280_pressure;Samples;Min_cycle;Max_cycle;Signal;HPM_P1;HPM_P2
2021/01/02 00:00:16;;;;;;;;;;;1.00;99.90;;;;;;2055048;28;20399;-67
2021/01/02 00:01:18;;;;;;;36.22;19.58;;;1.00;99.90;;;;;;2047610;28;19906;-67
2021/01/02 00:03:00;;;;;;;33.28;20.25;;;1.00;99.90;;;;;;2049151;28;20103;-67
2021/01/02 00:04:07;;;;;;;34.70;19.67;;;1.00;99.90;;;;;;2048675;29;20118;-67
2021/01/02 00:05:09;;;;;;;40.50;22.40;;;0.90;99.90;;;;;;2049353;28;20459;-67
2021/01/02 00:06:38;;;;;;;45.30;24.02;;;0.90;99.90;;;;;;2052215;28;20125;-68
2021/01/02 00:08:09;;;;;;;43.55;24.00;;;0.90;99.90;;;;;;2042196;28;20035;-67
2021/01/02 00:09:16;;;;;;;38.22;22.00;;;0.90;99.90;;;;;;2048612;29;20027;-67
2021/01/02 00:10:21;;;;;;;35.63;21.05;;;0.90;99.90;;;;;;2049013;29;20082;-67
2021/01/02 00:11:40;;;;;;;37.35;21.42;;;0.90;99.90;;;;;;2040348;29;20587;-67
2021/01/02 00:12:58;;;;;;;41.53;23.58;;;0.90;99.90;;;;;;2036535;28;20120;-68
2021/01/02 00:14:14;;;;;;;47.25;25.05;;;0.90;99.90;;;;;;2040607;29;20023;-66
2021/01/02 00:15:27;;;;;;;44.70;25.17;;;0.90;99.90;;;;;;2041088;29;20028;-67
2021/01/02 00:16:46;;;;;;;;;;;0.90;99.90;;;;;;2041927;29;20158;-67
2021/01/02 00:18:23;;;;;;;43.30;24.15;;;0.80;99.90;;;;;;2048631;28;19917;-67
2021/01/02 00:19:39;;;;;;;43.63;25.17;;;0.80;99.90;;;;;;2057241;28;20033;-67
2021/01/02 00:21:01;;;;;;;45.45;25.85;;;0.80;99.90;;;;;;2057324;28;20454;-67
2021/01/02 00:22:10;;;;;;;38.10;22.17;;;0.80;99.90;;;;;;2048594;28;20428;-67
2021/01/02 00:23:42;;;;;;;47.13;26.88;;;0.80;99.90;;;;;;2048903;28;20067;-67
2021/01/02 00:24:56;;;;;;;43.05;25.52;;;0.80;99.90;;;;;;2049129;28;20114;-67
2021/01/02 00:26:15;;;;;;;53.47;27.05;;;0.80;99.90;;;;;;2049166;28;20015;-67
2021/01/02 00:27:32;;;;;;;46.42;27.35;;;0.80;99.90;;;;;;2051851;28;20027;-67
2021/01/02 00:28:36;;;;;;;40.33;24.48;;;0.80;99.90;;;;;;2056910;28;20062;-67
2021/01/02 00:30:03;;;;;;;49.20;27.30;;;0.80;99.90;;;;;;2056724;28;20038;-67
2021/01/02 00:31:25;;;;;;;46.83;28.83;;;0.80;99.90;;;;;;2057056;28;20019;-67
2021/01/02 00:32:58;;;;;;;51.10;27.85;;;0.80;99.90;;;;;;2048525;28;20031;-67
2021/01/02 00:34:11;;;;;;;46.97;27.23;;;0.80;99.90;;;;;;2048988;28;20232;-67
2021/01/02 00:35:19;;;;;;;49.58;25.48;;;0.80;99.90;;;;;;2049452;28;20031;-67
2021/01/02 00:36:39;;;;;;;43.45;23.52;;;0.70;99.90;;;;;;2049901;28;20062;-67
2021/01/02 00:37:40;;;;;;;49.53;25.20;;;0.70;99.90;;;;;;2050174;28;20027;-67
2021/01/02 00:38:41;;;;;;;43.67;24.40;;;0.70;99.90;;;;;;2049143;28;20027;-66
2021/01/02 00:39:58;;;;;;;41.58;24.08;;;0.70;99.90;;;;;;2048575;28;20058;-67
2021/01/02 00:41:00;;;;;;;55.15;28.73;;;0.70;99.90;;;;;;2044627;28;20032;-67
2021/01/02 00:42:02;;;;;;;56.83;32.03;;;0.70;99.90;;;;;;2053927;28;20066;-67
2021/01/02 00:43:04;;;;;;;48.30;27.75;;;0.70;99.90;;;;;;2057086;28;20031;-67
2021/01/02 00:44:12;;;;;;;85.30;46.70;;;0.80;99.90;;;;;;2056379;28;20031;-67
2021/01/02 00:45:15;;;;;;;53.78;30.23;;;0.80;99.90;;;;;;2051218;28;20027;-67
2021/01/02 00:46:16;;;;;;;70.43;38.75;;;0.80;99.90;;;;;;2048944;28;20118;-67
2021/01/02 00:47:18;;;;;;;61.05;32.45;;;0.80;99.90;;;;;;2048597;28;20030;-66
2021/01/02 00:48:20;;;;;;;53.20;30.80;;;0.90;99.90;;;;;;2048586;29;20032;-66
2021/01/02 00:49:21;;;;;;;;;;;0.90;99.90;;;;;;2049462;28;20031;-66
2021/01/02 00:50:23;;;;;;;54.90;27.85;;;0.90;99.90;;;;;;2049179;28;20446;-67
2021/01/02 00:51:24;;;;;;;45.38;26.25;;;0.90;99.90;;;;;;2051387;28;20029;-67
2021/01/02 00:52:43;;;;;;;48.77;27.83;;;0.90;99.90;;;;;;2051804;28;20016;-66
2021/01/02 00:53:45;;;;;;;47.10;24.63;;;0.90;99.90;;;;;;2048613;28;20787;-68
2021/01/02 00:55:05;;;;;;;49.70;27.23;;;0.90;99.90;;;;;;2048272;29;20094;-66
2021/01/02 00:56:32;;;;;;;41.45;24.20;;;0.90;99.90;;;;;;2048672;29;20412;-66
2021/01/02 00:57:55;;;;;;;39.03;24.05;;;1.00;99.90;;;;;;2041029;28;20034;-66
2021/01/02 00:59:16;;;;;;;50.92;26.35;;;1.00;99.90;;;;;;2051871;28;20022;-66
2021/01/02 01:00:18;;;;;;;51.88;26.40;;;1.00;99.90;;;;;;2056575;28;20558;-67
2021/01/02 01:01:36;;;;;;;48.42;26.67;;;1.00;99.90;;;;;;2056986;28;20022;-66
2021/01/02 01:02:49;;;;;;;52.00;30.17;;;1.00;99.90;;;;;;2054082;28;20019;-67
2021/01/02 01:04:08;;;;;;;;;;;1.00;99.90;;;;;;2057391;28;20490;-67
2021/01/02 01:05:13;;;;;;;42.25;23.25;;;1.00;99.90;;;;;;2056701;28;20345;-66
2021/01/02 01:06:16;;;;;;;46.90;26.02;;;1.10;99.90;;;;;;2057110;28;20031;-66
2021/01/02 01:07:20;;;;;;;47.13;25.30;;;1.00;99.90;;;;;;2055846;28;20015;-66
2021/01/02 01:08:24;;;;;;;41.13;24.83;;;1.00;99.90;;;;;;2040836;29;20557;-66
2021/01/02 01:09:25;;;;;;;41.35;23.77;;;1.00;99.90;;;;;;2046300;28;20023;-66
2021/01/02 01:10:28;;;;;;;39.80;22.40;;;1.00;99.90;;;;;;2046833;28;20368;-66
2021/01/02 01:11:34;;;;;;;40.72;23.35;;;1.00;99.90;;;;;;2050059;28;20450;-67
2021/01/02 01:12:43;;;;;;;39.10;23.00;;;1.00;99.90;;;;;;2048214;28;20023;-67
2021/01/02 01:13:44;;;;;;;36.83;22.98;;;1.00;99.90;;;;;;2048739;28;20774;-66
2021/01/02 01:14:47;;;;;;;44.80;24.33;;;1.00;99.90;;;;;;2048945;28;20038;-66
2021/01/02 01:15:49;;;;;;;41.13;25.08;;;1.00;99.90;;;;;;2048924;28;20027;-66
2021/01/02 01:17:00;;;;;;;46.00;25.52;;;1.00;99.90;;;;;;2046310;28;20032;-67
2021/01/02 01:18:04;;;;;;;35.20;21.67;;;1.00;99.90;;;;;;2043754;28;20125;-67
2021/01/02 01:19:05;;;;;;;40.08;23.38;;;1.00;99.90;;;;;;2048808;28;20462;-67
2021/01/02 01:20:12;;;;;;;36.45;21.83;;;1.00;99.90;;;;;;2049055;28;20027;-67
2021/01/02 01:21:15;;;;;;;33.35;19.02;;;1.00;99.90;;;;;;2049001;28;20063;-67
2021/01/02 01:22:19;;;;;;;33.83;19.42;;;1.00;99.90;;;;;;2049029;28;20034;-66
2021/01/02 01:23:36;;;;;;;39.75;21.42;;;1.00;99.90;;;;;;2048212;29;20032;-66
2021/01/02 01:24:51;;;;;;;31.08;19.10;;;1.00;99.90;;;;;;2048601;29;20019;-66
2021/01/02 01:26:11;;;;;;;32.90;19.45;;;1.00;99.90;;;;;;2048712;28;20427;-67
2021/01/02 01:27:15;;;;;;;32.85;18.50;;;1.00;99.90;;;;;;2051506;28;20030;-67
2021/01/02 01:28:23;;;;;;;37.40;20.02;;;1.00;99.90;;;;;;2057266;28;20062;-67
2021/01/02 01:29:39;;;;;;;36.83;19.83;;;1.00;99.90;;;;;;2051356;28;20096;-66
2021/01/02 01:30:40;;;;;;;32.15;18.30;;;1.00;99.90;;;;;;2048845;28;20019;-67
2021/01/02 01:31:45;;;;;;;30.75;19.17;;;0.90;99.90;;;;;;2048017;29;20479;-66
2021/01/02 01:33:00;;;;;;;31.88;18.70;;;1.00;99.90;;;;;;2048838;29;20023;-66
2021/01/02 01:34:09;;;;;;;34.83;20.08;;;1.00;99.90;;;;;;2051149;28;20074;-67
2021/01/02 01:35:12;;;;;;;32.72;19.55;;;1.00;99.90;;;;;;2047679;28;20106;-70
2021/01/02 01:36:20;;;;;;;34.40;19.88;;;1.00;99.90;;;;;;2050390;28;20019;-67
2021/01/02 01:37:24;;;;;;;33.10;19.60;;;0.90;99.90;;;;;;2049465;28;20150;-67
2021/01/02 01:38:29;;;;;;;34.10;20.48;;;0.90;99.90;;;;;;2047670;28;20023;-67
2021/01/02 01:39:32;;;;;;;37.00;21.45;;;0.90;99.90;;;;;;2047929;29;20051;-66
2021/01/02 01:40:38;;;;;;;39.22;21.63;;;0.80;99.90;;;;;;2045652;29;20023;-66
2021/01/02 01:41:43;;;;;;;38.25;22.88;;;0.80;99.90;;;;;;2044053;29;20412;-66
2021/01/02 01:43:00;;;;;;;40.47;24.95;;;0.80;99.90;;;;;;2042814;28;20074;-66
2021/01/02 01:44:13;;;;;;;41.65;22.40;;;0.70;99.90;;;;;;2048298;28;20035;-66
2021/01/02 01:45:25;;;;;;;35.88;20.95;;;0.70;99.90;;;;;;2048483;28;20027;-66
2021/01/02 01:46:33;;;;;;;38.67;21.88;;;0.70;99.90;;;;;;2048466;28;20027;-67
2021/01/02 01:47:39;;;;;;;36.17;20.52;;;0.70;99.90;;;;;;2048532;28;20512;-67
2021/01/02 01:49:11;;;;;;;40.20;22.15;;;0.70;99.90;;;;;;2039990;28;20023;-67
2021/01/02 01:50:34;;;;;;;43.80;22.85;;;0.70;99.90;;;;;;2043360;28;20316;-67
2021/01/02 01:51:35;;;;;;;45.83;22.70;;;0.70;99.90;;;;;;2048765;28;20028;-66
2021/01/02 01:53:10;;;;;;;46.70;23.98;;;0.70;99.90;;;;;;2048697;28;20027;-66
2021/01/02 01:54:44;;;;;;;41.63;22.52;;;0.60;99.90;;;;;;2048648;28;20031;-66
2021/01/02 01:55:52;;;;;;;45.85;24.85;;;0.70;99.90;;;;;;2048468;29;20028;-66
2021/01/02 01:57:01;;;;;;;42.85;23.38;;;0.60;99.90;;;;;;2051531;28;21093;-66
2021/01/02 01:58:15;;;;;;;43.60;24.02;;;0.60;99.90;;;;;;2056296;28;20022;-66
2021/01/02 01:59:42;;;;;;;43.80;25.08;;;0.70;99.90;;;;;;2056373;28;20114;-66
2021/01/02 02:00:51;;;;;;;45.45;23.45;;;0.70;99.90;;;;;;2051607;28;20045;-66
2021/01/02 02:01:53;;;;;;;46.50;26.13;;;0.60;99.90;;;;;;2047821;28;20035;-66
2021/01/02 02:03:01;;;;;;;47.80;24.85;;;0.60;99.90;;;;;;2047617;28;20031;-66
2021/01/02 02:04:01;;;;;;;50.33;26.25;;;0.60;99.90;;;;;;2054143;28;20023;-66
2021/01/02 02:05:07;;;;;;;43.03;24.23;;;0.60;99.90;;;;;;2055422;28;20058;-66
2021/01/02 02:06:22;;;;;;;44.55;25.20;;;0.60;99.90;;;;;;2055710;28;20027;-66
2021/01/02 02:07:50;;;;;;;42.00;24.48;;;0.60;99.90;;;;;;2051290;28;20097;-66
2021/01/02 02:08:58;;;;;;;43.35;23.88;;;0.60;99.90;;;;;;2046917;28;20391;-66
2021/01/02 02:10:00;;;;;;;41.03;22.92;;;0.60;99.90;;;;;;2056407;28;20069;-66
2021/01/02 02:11:04;;;;;;;43.95;23.30;;;0.60;99.90;;;;;;2056407;28;20022;-66
2021/01/02 02:12:10;;;;;;;48.45;25.10;;;0.50;99.90;;;;;;2048701;28;20580;-67
2021/01/02 02:13:11;;;;;;;40.53;23.95;;;0.60;99.90;;;;;;2048722;28;20025;-66
2021/01/02 02:14:15;;;;;;;42.15;23.80;;;0.60;99.90;;;;;;2041634;28;20569;-66
2021/01/02 02:15:20;;;;;;;38.88;22.55;;;0.60;99.90;;;;;;2046581;28;20320;-66
2021/01/02 02:16:24;;;;;;;39.47;22.50;;;0.50;99.90;;;;;;2049698;28;20031;-66
2021/01/02 02:17:39;;;;;;;38.00;22.30;;;0.60;99.90;;;;;;2048768;28;20444;-66
2021/01/02 02:18:45;;;;;;;35.30;21.98;;;0.60;99.90;;;;;;2049637;28;20031;-66
2021/01/02 02:19:50;;;;;;;42.88;24.33;;;0.50;99.90;;;;;;2049608;28;20040;-66
2021/01/02 02:20:55;;;;;;;43.75;26.73;;;0.50;99.90;;;;;;2048539;28;20392;-66
2021/01/02 02:22:03;;;;;;;42.55;23.73;;;0.50;99.90;;;;;;2050680;28;20022;-65
2021/01/02 02:23:08;;;;;;;41.78;24.38;;;0.50;99.90;;;;;;2056052;28;20043;-65
2021/01/02 02:24:17;;;;;;;35.42;21.52;;;0.50;99.90;;;;;;2055366;28;20063;-65
2021/01/02 02:25:18;;;;;;;37.85;21.42;;;0.50;99.90;;;;;;2055783;28;20030;-65
2021/01/02 02:26:34;;;;;;;35.40;22.88;;;0.50;99.90;;;;;;2056113;28;20642;-65
2021/01/02 02:27:41;;;;;;;44.85;26.10;;;0.50;99.90;;;;;;2056354;28;20533;-65
2021/01/02 02:28:53;;;;;;;46.13;27.27;;;0.50;99.90;;;;;;2054703;28;20030;-66
2021/01/02 02:30:16;;;;;;;41.92;25.17;;;0.50;99.90;;;;;;2039515;29;20054;-65
2021/01/02 02:31:19;;;;;;;45.70;26.52;;;0.50;99.90;;;;;;2039915;29;20035;-65
2021/01/02 02:32:25;;;;;;;48.70;28.52;;;0.60;99.90;;;;;;2040289;29;20677;-65
2021/01/02 02:33:31;;;;;;;43.85;26.55;;;0.60;99.90;;;;;;2040361;29;20016;-65
2021/01/02 02:34:33;;;;;;;47.45;25.75;;;0.60;99.90;;;;;;2039389;29;20031;-65
2021/01/02 02:35:36;;;;;;;41.75;24.90;;;0.60;99.90;;;;;;2039746;29;20020;-65
2021/01/02 02:36:37;;;;;;;41.95;23.55;;;0.60;99.90;;;;;;2039500;29;20032;-65
2021/01/02 02:37:40;;;;;;;43.08;25.65;;;0.60;99.90;;;;;;2034724;29;20780;-65
2021/01/02 02:38:41;;;;;;;39.40;24.83;;;0.60;99.90;;;;;;2036638;29;20531;-65
2021/01/02 02:39:45;;;;;;;41.25;25.83;;;0.50;99.90;;;;;;2047623;28;20030;-65
2021/01/02 02:40:46;;;;;;;45.72;27.77;;;0.50;99.90;;;;;;2048385;28;20519;-65
2021/01/02 02:41:52;;;;;;;43.58;28.10;;;0.40;99.90;;;;;;2047404;28;20110;-66
2021/01/02 02:43:01;;;;;;;43.78;24.83;;;0.40;99.90;;;;;;2046344;28;20063;-66
2021/01/02 02:44:04;;;;;;;45.60;24.40;;;0.40;99.90;;;;;;2040150;29;20047;-65
2021/01/02 02:45:10;;;;;;;41.10;23.95;;;0.40;99.90;;;;;;2043178;28;20031;-66
2021/01/02 02:46:13;;;;;;;41.67;25.23;;;0.40;99.90;;;;;;2046568;28;20063;-65
2021/01/02 02:47:18;;;;;;;40.65;25.05;;;0.40;99.90;;;;;;2040073;29;20115;-65
2021/01/02 02:48:20;;;;;;;38.05;23.17;;;0.30;99.90;;;;;;2039914;29;20078;-65
2021/01/02 02:49:24;;;;;;;37.22;22.50;;;0.40;99.90;;;;;;2039326;29;20036;-65
2021/01/02 02:50:27;;;;;;;43.25;24.65;;;0.40;99.90;;;;;;2035579;29;20028;-65
2021/01/02 02:51:32;;;;;;;41.13;23.85;;;0.30;99.90;;;;;;2047254;28;20023;-65
2021/01/02 02:52:40;;;;;;;40.50;22.75;;;0.30;99.90;;;;;;2047300;28;20078;-66
2021/01/02 02:53:41;;;;;;;32.80;21.13;;;0.30;99.90;;;;;;2047812;28;20031;-65
2021/01/02 02:54:43;;;;;;;35.58;21.55;;;0.40;99.90;;;;;;2048126;28;20164;-65
2021/01/02 02:55:44;;;;;;;40.60;24.75;;;0.40;99.90;;;;;;2048170;28;20175;-65
2021/01/02 02:56:47;;;;;;;39.70;22.52;;;0.40;99.90;;;;;;2048238;28;20487;-65
2021/01/02 02:57:49;;;;;;;43.60;25.50;;;0.40;99.90;;;;;;2048147;28;20500;-65
2021/01/02 02:58:52;;;;;;;43.53;25.88;;;0.30;99.90;;;;;;2047313;29;20171;-66
2021/01/02 02:59:53;;;;;;;34.78;21.02;;;0.30;99.90;;;;;;2038718;29;20028;-65
2021/01/02 03:00:53;;;;;;;40.10;24.13;;;0.30;99.90;;;;;;2048502;28;20042;-65
2021/01/02 03:01:54;;;;;;;34.88;21.85;;;0.30;99.90;;;;;;2055184;28;20031;-65
2021/01/02 03:02:55;;;;;;;38.58;22.98;;;0.40;99.90;;;;;;2048050;28;20121;-65
2021/01/02 03:03:55;;;;;;;44.15;23.65;;;0.40;99.90;;;;;;2048059;28;20106;-65
2021/01/02 03:04:56;;;;;;;38.88;21.67;;;0.40;99.90;;;;;;2048362;28;20103;-65
2021/01/02 03:05:57;;;;;;;39.03;24.17;;;0.40;99.90;;;;;;2047948;28;20024;-65
2021/01/02 03:07:01;;;;;;;38.97;23.63;;;0.40;99.90;;;;;;2047361;28;20565;-65
2021/01/02 03:08:02;;;;;;;39.90;24.27;;;0.40;99.90;;;;;;2047203;29;20019;-65
2021/01/02 03:09:03;;;;;;;40.83;24.08;;;0.40;99.90;;;;;;2048046;28;20038;-65
2021/01/02 03:10:05;;;;;;;39.85;24.35;;;0.40;99.90;;;;;;2042133;29;20480;-66
2021/01/02 03:11:07;;;;;;;36.05;22.35;;;0.50;99.90;;;;;;2044921;28;20041;-65
2021/01/02 03:12:07;;;;;;;36.22;22.80;;;0.50;99.90;;;;;;2044484;28;20027;-65
2021/01/02 03:13:08;;;;;;;40.20;22.58;;;0.50;99.90;;;;;;2047228;29;20055;-65
2021/01/02 03:14:09;;;;;;;37.85;23.30;;;0.60;99.90;;;;;;2039325;29;20171;-65
2021/01/02 03:15:15;;;;;;;41.50;23.70;;;0.60;99.90;;;;;;2052213;28;20027;-65
2021/01/02 03:16:16;;;;;;;51.95;29.85;;;0.60;99.90;;;;;;2054225;28;20128;-65
2021/01/02 03:17:17;;;;;;;67.93;36.70;;;0.70;99.90;;;;;;2047042;28;20027;-65
2021/01/02 03:18:18;;;;;;;46.28;27.67;;;0.70;99.90;;;;;;2047377;29;20083;-65
2021/01/02 03:19:18;;;;;;;53.05;30.85;;;0.80;99.90;;;;;;2055587;28;20275;-65
2021/01/02 03:20:19;;;;;;;49.70;29.17;;;0.80;99.90;;;;;;2055242;28;20019;-65
2021/01/02 03:21:21;;;;;;;49.63;29.67;;;0.80;99.90;;;;;;2055302;28;20074;-65
2021/01/02 03:22:22;;;;;;;41.35;24.85;;;0.80;99.90;;;;;;2056094;28;20483;-66
2021/01/02 03:23:22;;;;;;;45.63;23.67;;;0.80;99.90;;;;;;2048459;28;20027;-65
2021/01/02 03:24:23;;;;;;;39.78;24.00;;;0.80;99.90;;;;;;2054158;28;20110;-65
2021/01/02 03:25:24;;;;;;;39.20;23.63;;;0.90;99.90;;;;;;2055121;28;20019;-65
2021/01/02 03:26:25;;;;;;;41.17;24.63;;;0.90;99.90;;;;;;2039929;29;20550;-65
2021/01/02 03:27:25;;;;;;;39.58;23.52;;;0.90;99.90;;;;;;2040100;29;20027;-65
2021/01/02 03:28:26;;;;;;;36.42;22.15;;;1.00;99.90;;;;;;2039546;29;20054;-65
2021/01/02 03:29:27;;;;;;;40.88;22.65;;;1.00;99.90;;;;;;2039270;29;20031;-65
2021/01/02 03:30:27;;;;;;;37.67;23.10;;;1.00;99.90;;;;;;2039769;28;20016;-65
2021/01/02 03:31:28;;;;;;;36.40;22.17;;;1.00;99.90;;;;;;2054374;28;20023;-65
2021/01/02 03:32:29;;;;;;;41.22;23.00;;;1.00;99.90;;;;;;2047785;29;20019;-65
2021/01/02 03:33:29;;;;;;;35.33;21.38;;;1.10;99.90;;;;;;2048061;28;20495;-65
2021/01/02 03:34:30;;;;;;;34.40;22.25;;;1.10;99.90;;;;;;2048117;28;20768;-66
2021/01/02 03:35:32;;;;;;;31.50;21.02;;;1.10;99.90;;;;;;2048202;28;20024;-65
2021/01/02 03:36:33;;;;;;;35.42;21.25;;;1.10;99.90;;;;;;2048361;28;20023;-65
2021/01/02 03:37:35;;;;;;;40.22;23.15;;;1.10;99.90;;;;;;2048321;28;20029;-65
2021/01/02 03:38:37;;;;;;;48.95;27.70;;;1.10;99.90;;;;;;2048369;29;20503;-66
2021/01/02 03:39:37;;;;;;;;;;;1.10;99.90;;;;;;2049004;28;20114;-66
2021/01/02 03:40:38;;;;;;;37.92;20.92;;;1.10;99.90;;;;;;2050217;28;20231;-66
2021/01/02 03:41:39;;;;;;;35.38;22.70;;;1.10;99.90;;;;;;2049942;28;20031;-65
2021/01/02 03:42:44;;;;;;;40.33;24.00;;;1.10;99.90;;;;;;2049775;28;20039;-67
2021/01/02 03:43:45;;;;;;;34.75;22.67;;;1.10;99.90;;;;;;2046099;29;20050;-66
2021/01/02 03:44:46;;;;;;;38.60;22.92;;;1.10;99.90;;;;;;2043154;29;20035;-66
2021/01/02 03:45:46;;;;;;;41.95;25.65;;;1.10;99.90;;;;;;2046269;28;20114;-65
2021/01/02 03:46:47;;;;;;;44.10;26.67;;;1.10;99.90;;;;;;2047596;28;20023;-65
2021/01/02 03:47:48;;;;;;;38.05;24.25;;;1.10;99.90;;;;;;2047674;28;20105;-66
2021/01/02 03:48:49;;;;;;;41.22;23.55;;;1.10;99.90;;;;;;2047621;28;20012;-66
2021/01/02 03:49:50;;;;;;;34.70;22.90;;;1.10;99.90;;;;;;2047207;29;20026;-66
2021/01/02 03:50:50;;;;;;;45.50;24.73;;;1.10;99.90;;;;;;2047194;29;20388;-65
2021/01/02 03:51:51;;;;;;;55.80;30.70;;;1.10;99.90;;;;;;2047736;28;20500;-66
2021/01/02 03:52:51;;;;;;;68.72;36.33;;;1.10;99.90;;;;;;2047705;28;20044;-65
2021/01/02 03:53:52;;;;;;;61.63;33.90;;;1.10;99.90;;;;;;2041507;28;20028;-66
2021/01/02 03:54:53;;;;;;;53.92;31.55;;;1.10;99.90;;;;;;2044519;28;20403;-66
2021/01/02 03:55:54;;;;;;;59.40;32.83;;;1.10;99.90;;;;;;2047587;28;20332;-66
2021/01/02 03:56:54;;;;;;;57.70;32.17;;;1.10;99.90;;;;;;2047667;28;20244;-66
2021/01/02 03:57:55;;;;;;;46.55;25.38;;;1.10;99.90;;;;;;2047753;28;20036;-66
2021/01/02 03:58:56;;;;;;;49.38;26.33;;;1.10;99.90;;;;;;2047701;28;20055;-66
2021/01/02 03:59:56;;;;;;;36.30;21.48;;;1.10;99.90;;;;;;2047460;28;20031;-66
2021/01/02 04:00:57;;;;;;;33.22;21.38;;;1.10;99.90;;;;;;2048775;28;20646;-66
2021/01/02 04:01:59;;;;;;;41.53;22.40;;;1.10;99.90;;;;;;2056184;28;20035;-65
2021/01/02 04:03:00;;;;;;;28.60;19.63;;;1.10;99.90;;;;;;2055674;28;20546;-66
2021/01/02 04:04:01;;;;;;;30.48;20.35;;;1.20;99.90;;;;;;2056160;28;20039;-66
2021/01/02 04:05:04;;;;;;;33.42;19.98;;;1.20;99.90;;;;;;2057250;28;20118;-65
2021/01/02 04:06:05;;;;;;;35.78;21.52;;;1.20;99.90;;;;;;2056195;28;20078;-66
2021/01/02 04:07:06;;;;;;;32.53;20.90;;;1.30;99.90;;;;;;2056883;28;20050;-65
2021/01/02 04:08:08;;;;;;;33.75;20.55;;;1.20;99.90;;;;;;2049622;28;20028;-66
2021/01/02 04:09:08;;;;;;;30.85;20.55;;;1.20;99.90;;;;;;2040782;29;20422;-66
2021/01/02 04:10:09;;;;;;;39.58;24.00;;;1.20;99.90;;;;;;2045096;28;20078;-65
2021/01/02 04:11:10;;;;;;;44.72;24.98;;;1.20;99.90;;;;;;2048607;29;20023;-66
2021/01/02 04:12:11;;;;;;;38.17;23.70;;;1.20;99.90;;;;;;2040986;29;20032;-66
2021/01/02 04:13:12;;;;;;;39.53;23.55;;;1.20;99.90;;;;;;2040870;29;20051;-65
2021/01/02 04:14:14;;;;;;;31.67;21.08;;;1.20;99.90;;;;;;2041521;29;20024;-66
2021/01/02 04:15:14;;;;;;;37.83;22.83;;;1.20;99.90;;;;;;2041576;29;20028;-67
2021/01/02 04:16:15;;;;;;;38.55;23.83;;;1.30;99.90;;;;;;2040359;29;20032;-66
2021/01/02 04:17:16;;;;;;;35.40;21.88;;;1.30;99.90;;;;;;2040564;29;20038;-66
2021/01/02 04:18:17;;;;;;;34.95;22.08;;;1.30;99.90;;;;;;2041610;29;20071;-66
2021/01/02 04:19:18;;;;;;;47.35;25.50;;;1.30;99.90;;;;;;2047958;29;20075;-66
2021/01/02 04:20:19;;;;;;;39.35;25.90;;;1.30;99.90;;;;;;2048579;28;20032;-66
2021/01/02 04:21:20;;;;;;;46.88;26.27;;;1.30;99.90;;;;;;2048869;29;20050;-66
2021/01/02 04:22:20;;;;;;;48.33;25.27;;;1.30;99.90;;;;;;2048022;29;20031;-66
2021/01/02 04:23:21;;;;;;;46.65;24.60;;;1.20;99.90;;;;;;2047322;29;20582;-66
2021/01/02 04:24:22;;;;;;;54.95;30.02;;;1.20;99.90;;;;;;2055829;28;20026;-66
2021/01/02 04:25:23;;;;;;;47.50;26.13;;;1.30;99.90;;;;;;2055632;28;20102;-66
2021/01/02 04:26:24;;;;;;;40.50;23.83;;;1.30;99.90;;;;;;2055504;28;20606;-66
2021/01/02 04:27:25;;;;;;;44.33;26.77;;;1.30;99.90;;;;;;2048256;28;20328;-66
2021/01/02 04:28:26;;;;;;;57.30;30.35;;;1.30;99.90;;;;;;2058002;28;20499;-66
2021/01/02 04:29:28;;;;;;;53.63;29.60;;;1.30;99.90;;;;;;2050046;28;20458;-65
2021/01/02 04:30:28;;;;;;;51.00;28.05;;;1.30;99.90;;;;;;2054923;28;20474;-66
2021/01/02 04:31:35;;;;;;;55.60;32.35;;;1.30;99.90;;;;;;2053290;28;20034;-67
2021/01/02 04:32:36;;;;;;;41.78;24.90;;;1.30;99.90;;;;;;2050647;28;20026;-66
2021/01/02 04:33:37;;;;;;;40.25;25.88;;;1.30;99.90;;;;;;2050669;28;20034;-67
2021/01/02 04:34:38;;;;;;;40.28;24.77;;;1.30;99.90;;;;;;2050732;28;20011;-66
2021/01/02 04:35:38;;;;;;;41.25;24.50;;;1.30;99.90;;;;;;2048715;29;20031;-66
2021/01/02 04:36:39;;;;;;;39.78;24.13;;;1.40;99.90;;;;;;2047136;29;20110;-66
2021/01/02 04:37:41;;;;;;;40.10;24.85;;;1.40;99.90;;;;;;2048229;28;20098;-67
2021/01/02 04:38:43;;;;;;;36.75;21.33;;;1.40;99.90;;;;;;2049259;28;20038;-66
2021/01/02 04:39:43;;;;;;;31.08;17.83;;;1.40;99.90;;;;;;2049248;28;20518;-66
2021/01/02 04:40:44;;;;;;;32.25;20.75;;;1.40;99.90;;;;;;2049145;28;20054;-66
2021/01/02 04:41:45;;;;;;;32.42;20.15;;;1.50;99.90;;;;;;2048456;29;20023;-66
2021/01/02 04:42:48;;;;;;;33.30;21.17;;;1.50;99.90;;;;;;2049729;28;20515;-66
2021/01/02 04:43:50;;;;;;;32.15;20.38;;;1.50;99.90;;;;;;2049940;28;20012;-66
2021/01/02 04:44:52;;;;;;;30.02;19.90;;;1.50;99.90;;;;;;2049892;28;20486;-66
2021/01/02 04:45:53;;;;;;;31.98;20.17;;;1.60;99.90;;;;;;2045723;28;20110;-66
2021/01/02 04:46:55;;;;;;;31.63;20.23;;;1.60;99.90;;;;;;2049612;28;20102;-66
2021/01/02 04:48:04;;;;;;;29.58;18.90;;;1.60;99.90;;;;;;2049899;28;20270;-66
2021/01/02 04:49:05;;;;;;;29.30;18.38;;;1.50;99.90;;;;;;2049557;28;20030;-66
2021/01/02 04:50:08;;;;;;;33.13;20.48;;;1.60;99.90;;;;;;2049814;28;20044;-67
2021/01/02 04:51:10;;;;;;;33.75;20.60;;;1.60;99.90;;;;;;2050005;28;20023;-66
2021/01/02 04:52:13;;;;;;;34.15;21.02;;;1.60;99.90;;;;;;2044356;29;20131;-66
2021/01/02 04:53:14;;;;;;;30.63;20.58;;;1.60;99.90;;;;;;2045812;28;20031;-66
2021/01/02 04:54:19;;;;;;;33.38;21.55;;;1.50;99.90;;;;;;2044034;29;20031;-67
2021/01/02 04:55:23;;;;;;;33.72;21.85;;;1.50;99.90;;;;;;2044434;29;20028;-66
2021/01/02 04:56:26;;;;;;;34.40;21.30;;;1.50;99.90;;;;;;2055725;28;20472;-66
2021/01/02 04:57:32;;;;;;;36.92;22.10;;;1.60;99.90;;;;;;2056873;28;20566;-66
2021/01/02 04:58:51;;;;;;;41.72;22.70;;;1.60;99.90;;;;;;2056941;28;20026;-66
2021/01/02 04:59:52;;;;;;;40.08;22.60;;;1.60;99.90;;;;;;2050148;28;20546;-67
2021/01/02 05:00:56;;;;;;;45.97;23.60;;;1.60;99.90;;;;;;2048344;28;20205;-66
2021/01/02 05:01:59;;;;;;;45.90;25.35;;;1.60;99.90;;;;;;2048867;28;20019;-66
2021/01/02 05:03:01;;;;;;;45.58;24.67;;;1.60;99.90;;;;;;2048635;28;20083;-66
2021/01/02 05:04:01;;;;;;;44.08;23.45;;;1.60;99.90;;;;;;2048153;29;20035;-66
2021/01/02 05:05:04;;;;;;;45.83;23.42;;;1.60;99.90;;;;;;2048183;29;20046;-66
2021/01/02 05:06:05;;;;;;;44.72;25.00;;;1.60;99.90;;;;;;2047848;28;20038;-66
2021/01/02 05:07:05;;;;;;;46.70;25.17;;;1.60;99.90;;;;;;2048064;29;20102;-66
2021/01/02 05:08:07;;;;;;;45.80;26.35;;;1.60;99.90;;;;;;2053602;28;20085;-66
2021/01/02 05:09:07;;;;;;;44.00;25.88;;;1.60;99.90;;;;;;2056524;28;20491;-66
2021/01/02 05:10:09;;;;;;;41.35;26.55;;;1.50;99.90;;;;;;2056685;28;20154;-66
2021/01/02 05:11:10;;;;;;;50.80;26.30;;;1.60;99.90;;;;;;2056910;28;20085;-66
2021/01/02 05:12:34;;;;;;;38.00;24.33;;;1.50;99.90;;;;;;2042981;28;20937;-66
2021/01/02 05:13:36;;;;;;;43.55;24.08;;;1.50;99.90;;;;;;2041419;28;20071;-66
2021/01/02 05:15:00;;;;;;;40.00;23.00;;;1.50;99.90;;;;;;2055463;28;20015;-66
2021/01/02 05:16:18;;;;;;;37.05;22.60;;;1.60;99.90;;;;;;2049706;28;20051;-66
2021/01/02 05:17:26;;;;;;;41.30;22.90;;;1.60;99.90;;;;;;2048820;28;20022;-66
2021/01/02 05:18:27;;;;;;;35.65;23.20;;;1.60;99.90;;;;;;2048699;28;20102;-66
2021/01/02 05:19:27;;;;;;;34.42;20.98;;;1.60;99.90;;;;;;2048820;28;20500;-66
2021/01/02 05:20:28;;;;;;;30.75;19.35;;;1.60;99.90;;;;;;2040196;28;20492;-66
2021/01/02 05:21:31;;;;;;;30.42;19.27;;;1.60;99.90;;;;;;2048064;28;20035;-66
2021/01/02 05:22:32;;;;;;;38.45;20.98;;;1.70;99.90;;;;;;2049362;28;20027;-66
2021/01/02 05:23:32;;;;;;;35.33;20.25;;;1.70;99.90;;;;;;2049536;28;20012;-66
2021/01/02 05:24:33;;;;;;;32.20;19.48;;;1.70;99.90;;;;;;2048776;28;20029;-66
2021/01/02 05:25:34;;;;;;;36.35;19.85;;;1.70;99.90;;;;;;2049391;28;20070;-66
2021/01/02 05:26:42;;;;;;;34.53;19.83;;;1.70;99.90;;;;;;2049051;28;20461;-66
2021/01/02 05:27:46;;;;;;;36.42;21.83;;;1.70;99.90;;;;;;2051419;28;20077;-66
2021/01/02 05:29:06;;;;;;;35.10;19.80;;;1.70;99.90;;;;;;2049074;28;20055;-66
2021/01/02 05:30:26;;;;;;;28.60;19.23;;;1.60;99.90;;;;;;2048895;28;20027;-66
2021/01/02 05:31:27;;;;;;;28.02;17.98;;;1.70;99.90;;;;;;2048915;28;20484;-66
2021/01/02 05:32:28;;;;;;;33.50;19.98;;;1.70;99.90;;;;;;2045917;28;20031;-66
2021/01/02 05:33:29;;;;;;;28.17;17.95;;;1.70;99.90;;;;;;2048625;28;20027;-66
2021/01/02 05:34:31;;;;;;;31.00;19.98;;;1.70;99.90;;;;;;2048620;28;20241;-66
2021/01/02 05:35:46;;;;;;;31.55;19.73;;;1.60;99.90;;;;;;2048842;28;20019;-66
2021/01/02 05:36:58;;;;;;;28.63;17.45;;;1.60;99.90;;;;;;2048692;28;20033;-66
2021/01/02 05:38:22;;;;;;;28.63;18.88;;;1.60;99.90;;;;;;2049007;28;20039;-66
2021/01/02 05:39:37;;;;;;;28.90;18.23;;;1.60;99.90;;;;;;2048742;28;20028;-66